sensor_id;sensor_type;location;lat;lon;timestamp;pressure;altitude;pressure_sealevel;temperature;humidity
8059;BME280;4072;42.668;23.396;2023-10-09T00:00:34;95556.59;;;20.70;78.67
8059;BME280;4072;42.668;23.396;2023-10-09T00:03:23;95561.38;;;20.64;79.04
8059;BME280;4072;42.668;23.396;2023-10-09T00:05:55;95553.88;;;20.59;79.55
8059;BME280;4072;42.668;23.396;2023-10-09T00:08:24;95518.63;;;20.47;79.06
8059;BME280;4072;42.668;23.396;2023-10-09T00:10:59;95561.59;;;20.77;78.20
8059;BME280;4072;42.668;23.396;2023-10-09T00:13:42;95561.88;;;20.52;79.61
8059;BME280;4072;42.668;23.396;2023-10-09T00:16:19;95550.84;;;20.41;80.34
8059;BME280;4072;42.668;23.396;2023-10-09T00:19:00;95559.13;;;20.63;79.07
8059;BME280;4072;42.668;23.396;2023-10-09T00:21:43;95562.88;;;20.54;79.57
8059;BME280;4072;42.668;23.396;2023-10-09T00:24:13;95560.13;;;20.38;80.98
8059;BME280;4072;42.668;23.396;2023-10-09T00:26:49;95550.13;;;20.35;80.87
8059;BME280;4072;42.668;23.396;2023-10-09T00:29:19;95551.09;;;20.37;81.06
8059;BME280;4072;42.668;23.396;2023-10-09T00:31:51;95548.38;;;20.37;80.92
8059;BME280;4072;42.668;23.396;2023-10-09T00:34:23;95549.84;;;20.27;81.28
8059;BME280;4072;42.668;23.396;2023-10-09T00:36:53;95548.09;;;20.30;81.59
8059;BME280;4072;42.668;23.396;2023-10-09T00:39:23;95563.34;;;20.31;80.55
8059;BME280;4072;42.668;23.396;2023-10-09T00:42:08;95548.81;;;20.08;80.95
8059;BME280;4072;42.668;23.396;2023-10-09T00:44:40;95509.06;;;19.87;81.13
8059;BME280;4072;42.668;23.396;2023-10-09T00:47:10;95548.53;;;20.06;81.59
8059;BME280;4072;42.668;23.396;2023-10-09T00:49:50;95563.47;;;19.88;82.86
8059;BME280;4072;42.668;23.396;2023-10-09T00:52:25;95568.19;;;19.77;84.33
8059;BME280;4072;42.668;23.396;2023-10-09T00:55:00;95563.38;;;19.66;85.24
8059;BME280;4072;42.668;23.396;2023-10-09T00:57:42;95522.13;;;19.39;85.47
8059;BME280;4072;42.668;23.396;2023-10-09T01:00:18;95570.44;;;19.78;83.94
8059;BME280;4072;42.668;23.396;2023-10-09T01:03:00;95516.50;;;19.17;85.92
8059;BME280;4072;42.668;23.396;2023-10-09T01:05:47;95596.56;;;19.63;85.50
8059;BME280;4072;42.668;23.396;2023-10-09T01:08:24;95579.75;;;19.44;85.02
8059;BME280;4072;42.668;23.396;2023-10-09T01:10:56;95579.28;;;19.46;84.84
8059;BME280;4072;42.668;23.396;2023-10-09T01:13:36;95567.03;;;19.41;84.73
8059;BME280;4072;42.668;23.396;2023-10-09T01:16:23;95570.22;;;19.29;84.29
8059;BME280;4072;42.668;23.396;2023-10-09T01:18:52;95593.41;;;19.28;83.50
8059;BME280;4072;42.668;23.396;2023-10-09T01:21:25;95581.00;;;19.01;82.69
8059;BME280;4072;42.668;23.396;2023-10-09T01:23:55;95600.50;;;19.09;82.95
8059;BME280;4072;42.668;23.396;2023-10-09T01:26:37;95596.34;;;18.88;84.35
8059;BME280;4072;42.668;23.396;2023-10-09T01:29:14;95603.41;;;19.00;84.14
8059;BME280;4072;42.668;23.396;2023-10-09T01:31:45;95613.75;;;19.16;82.93
8059;BME280;4072;42.668;23.396;2023-10-09T01:34:23;95587.94;;;18.97;81.58
8059;BME280;4072;42.668;23.396;2023-10-09T01:37:06;95617.25;;;19.22;81.72
8059;BME280;4072;42.668;23.396;2023-10-09T01:39:40;95620.22;;;19.13;81.52
8059;BME280;4072;42.668;23.396;2023-10-09T01:42:09;95632.09;;;18.99;82.33
8059;BME280;4072;42.668;23.396;2023-10-09T01:44:37;95639.75;;;18.89;81.35
8059;BME280;4072;42.668;23.396;2023-10-09T01:47:10;95646.81;;;18.45;83.85
8059;BME280;4072;42.668;23.396;2023-10-09T01:49:45;95648.75;;;18.19;86.82
8059;BME280;4072;42.668;23.396;2023-10-09T01:52:16;95635.06;;;18.19;87.27
8059;BME280;4072;42.668;23.396;2023-10-09T01:54:47;95653.50;;;17.98;89.48
8059;BME280;4072;42.668;23.396;2023-10-09T01:57:17;95655.34;;;17.87;90.86
8059;BME280;4072;42.668;23.396;2023-10-09T01:59:50;95613.69;;;17.22;93.16
8059;BME280;4072;42.668;23.396;2023-10-09T02:02:21;95602.34;;;17.29;92.96
8059;BME280;4072;42.668;23.396;2023-10-09T02:04:54;95660.53;;;17.65;92.33
8059;BME280;4072;42.668;23.396;2023-10-09T02:07:33;95678.47;;;17.66;92.21
8059;BME280;4072;42.668;23.396;2023-10-09T02:10:11;95675.25;;;17.67;91.67
8059;BME280;4072;42.668;23.396;2023-10-09T02:12:52;95682.47;;;17.85;90.31
8059;BME280;4072;42.668;23.396;2023-10-09T02:15:26;95665.75;;;17.83;89.07
8059;BME280;4072;42.668;23.396;2023-10-09T02:18:19;95680.13;;;17.78;89.77
8059;BME280;4072;42.668;23.396;2023-10-09T02:21:05;95666.78;;;17.65;90.75
8059;BME280;4072;42.668;23.396;2023-10-09T02:23:47;95647.69;;;17.36;91.90
8059;BME280;4072;42.668;23.396;2023-10-09T02:26:19;95684.47;;;17.50;92.39
8059;BME280;4072;42.668;23.396;2023-10-09T02:28:53;95690.59;;;17.44;93.05
8059;BME280;4072;42.668;23.396;2023-10-09T02:31:27;95686.91;;;17.48;92.56
8059;BME280;4072;42.668;23.396;2023-10-09T02:34:03;95677.44;;;17.28;93.31
8059;BME280;4072;42.668;23.396;2023-10-09T02:36:34;95684.78;;;17.22;94.55
8059;BME280;4072;42.668;23.396;2023-10-09T02:39:08;95696.03;;;16.95;96.50
8059;BME280;4072;42.668;23.396;2023-10-09T02:41:52;95691.50;;;16.92;97.23
8059;BME280;4072;42.668;23.396;2023-10-09T02:44:25;95699.72;;;16.78;97.69
8059;BME280;4072;42.668;23.396;2023-10-09T02:46:56;95711.94;;;16.53;99.09
8059;BME280;4072;42.668;23.396;2023-10-09T02:49:25;95727.41;;;16.71;98.94
8059;BME280;4072;42.668;23.396;2023-10-09T02:51:54;95716.88;;;16.78;97.37
8059;BME280;4072;42.668;23.396;2023-10-09T02:54:22;95728.19;;;16.71;97.44
8059;BME280;4072;42.668;23.396;2023-10-09T02:57:04;95734.47;;;16.63;98.34
8059;BME280;4072;42.668;23.396;2023-10-09T02:59:35;95740.56;;;16.58;99.40
8059;BME280;4072;42.668;23.396;2023-10-09T03:02:05;95733.50;;;16.51;100.00
8059;BME280;4072;42.668;23.396;2023-10-09T03:04:34;95732.94;;;16.47;100.00
8059;BME280;4072;42.668;23.396;2023-10-09T03:07:02;95734.09;;;16.55;100.00
8059;BME280;4072;42.668;23.396;2023-10-09T03:09:31;95732.47;;;16.49;100.00
8059;BME280;4072;42.668;23.396;2023-10-09T03:12:04;95735.13;;;16.43;100.00
8059;BME280;4072;42.668;23.396;2023-10-09T03:14:37;95741.25;;;16.29;100.00
8059;BME280;4072;42.668;23.396;2023-10-09T03:17:06;95739.03;;;16.42;100.00
8059;BME280;4072;42.668;23.396;2023-10-09T03:19:39;95740.91;;;16.36;100.00
8059;BME280;4072;42.668;23.396;2023-10-09T03:22:07;95743.28;;;16.20;100.00
8059;BME280;4072;42.668;23.396;2023-10-09T03:24:38;95702.00;;;15.65;100.00
8059;BME280;4072;42.668;23.396;2023-10-09T03:27:10;95732.91;;;15.62;100.00
8059;BME280;4072;42.668;23.396;2023-10-09T03:29:38;95749.75;;;15.84;100.00
8059;BME280;4072;42.668;23.396;2023-10-09T03:32:16;95751.03;;;15.74;100.00
8059;BME280;4072;42.668;23.396;2023-10-09T03:34:46;95771.34;;;15.73;100.00
8059;BME280;4072;42.668;23.396;2023-10-09T03:37:19;95755.13;;;15.70;100.00
8059;BME280;4072;42.668;23.396;2023-10-09T03:40:02;95751.78;;;15.42;100.00
8059;BME280;4072;42.668;23.396;2023-10-09T03:42:35;95764.13;;;15.61;100.00
8059;BME280;4072;42.668;23.396;2023-10-09T03:45:10;95761.78;;;15.45;100.00
8059;BME280;4072;42.668;23.396;2023-10-09T03:47:52;95773.63;;;15.24;100.00
8059;BME280;4072;42.668;23.396;2023-10-09T03:50:28;95770.00;;;15.18;100.00
8059;BME280;4072;42.668;23.396;2023-10-09T03:53:04;95749.78;;;15.01;100.00
8059;BME280;4072;42.668;23.396;2023-10-09T03:55:35;95754.91;;;15.08;100.00
8059;BME280;4072;42.668;23.396;2023-10-09T03:58:07;95761.28;;;15.05;100.00
8059;BME280;4072;42.668;23.396;2023-10-09T04:00:39;95762.97;;;14.85;100.00
8059;BME280;4072;42.668;23.396;2023-10-09T04:03:13;95757.72;;;14.81;100.00
8059;BME280;4072;42.668;23.396;2023-10-09T04:05:44;95784.78;;;14.85;100.00
8059;BME280;4072;42.668;23.396;2023-10-09T04:08:13;95788.84;;;14.80;100.00
8059;BME280;4072;42.668;23.396;2023-10-09T04:10:47;95775.56;;;14.91;100.00
8059;BME280;4072;42.668;23.396;2023-10-09T04:13:26;95770.06;;;15.00;100.00
8059;BME280;4072;42.668;23.396;2023-10-09T04:16:01;95772.81;;;14.91;100.00
8059;BME280;4072;42.668;23.396;2023-10-09T04:18:38;95760.34;;;15.08;100.00
8059;BME280;4072;42.668;23.396;2023-10-09T04:21:07;95764.94;;;14.93;100.00
8059;BME280;4072;42.668;23.396;2023-10-09T04:23:47;95759.81;;;14.86;100.00
8059;BME280;4072;42.668;23.396;2023-10-09T04:26:37;95773.16;;;14.84;100.00
8059;BME280;4072;42.668;23.396;2023-10-09T04:29:08;95782.38;;;14.87;100.00
8059;BME280;4072;42.668;23.396;2023-10-09T04:31:37;95791.59;;;14.89;100.00
8059;BME280;4072;42.668;23.396;2023-10-09T04:34:05;95770.28;;;14.79;100.00
8059;BME280;4072;42.668;23.396;2023-10-09T04:36:47;95789.94;;;14.73;100.00
8059;BME280;4072;42.668;23.396;2023-10-09T04:39:20;95783.44;;;14.62;100.00
8059;BME280;4072;42.668;23.396;2023-10-09T04:42:13;95775.28;;;14.53;100.00
8059;BME280;4072;42.668;23.396;2023-10-09T04:45:02;95781.94;;;14.52;100.00
8059;BME280;4072;42.668;23.396;2023-10-09T04:47:59;95773.75;;;14.61;99.98
8059;BME280;4072;42.668;23.396;2023-10-09T04:50:33;95794.03;;;14.69;97.94
8059;BME280;4072;42.668;23.396;2023-10-09T04:53:13;95792.22;;;14.84;96.28
8059;BME280;4072;42.668;23.396;2023-10-09T04:56:11;95801.59;;;14.74;96.12
8059;BME280;4072;42.668;23.396;2023-10-09T04:58:43;95798.56;;;14.81;95.11
8059;BME280;4072;42.668;23.396;2023-10-09T05:01:14;95797.94;;;14.86;94.08
8059;BME280;4072;42.668;23.396;2023-10-09T05:04:04;95802.97;;;14.79;92.82
8059;BME280;4072;42.668;23.396;2023-10-09T05:06:46;95791.63;;;14.53;93.29
8059;BME280;4072;42.668;23.396;2023-10-09T05:09:23;95806.88;;;14.59;92.84
8059;BME280;4072;42.668;23.396;2023-10-09T05:11:51;95820.06;;;14.52;93.19
8059;BME280;4072;42.668;23.396;2023-10-09T05:14:27;95817.66;;;14.63;90.65
8059;BME280;4072;42.668;23.396;2023-10-09T05:16:55;95822.16;;;14.84;89.42
8059;BME280;4072;42.668;23.396;2023-10-09T05:19:28;95807.03;;;14.83;87.10
8059;BME280;4072;42.668;23.396;2023-10-09T05:22:16;95819.13;;;14.91;84.99
8059;BME280;4072;42.668;23.396;2023-10-09T05:24:58;95823.69;;;14.85;84.26
8059;BME280;4072;42.668;23.396;2023-10-09T05:27:26;95824.28;;;14.80;84.69
8059;BME280;4072;42.668;23.396;2023-10-09T05:30:08;95825.78;;;14.90;83.48
8059;BME280;4072;42.668;23.396;2023-10-09T05:32:55;95837.28;;;14.94;82.27
8059;BME280;4072;42.668;23.396;2023-10-09T05:35:30;95838.50;;;14.93;81.75
8059;BME280;4072;42.668;23.396;2023-10-09T05:38:08;95848.03;;;14.98;82.12
8059;BME280;4072;42.668;23.396;2023-10-09T05:40:53;95825.78;;;14.90;79.69
8059;BME280;4072;42.668;23.396;2023-10-09T05:43:21;95842.88;;;15.09;78.03
8059;BME280;4072;42.668;23.396;2023-10-09T05:46:07;95804.91;;;14.69;78.69
8059;BME280;4072;42.668;23.396;2023-10-09T05:48:37;95864.50;;;15.21;77.14
8059;BME280;4072;42.668;23.396;2023-10-09T05:51:21;95866.34;;;15.06;75.37
8059;BME280;4072;42.668;23.396;2023-10-09T05:54:07;95854.63;;;15.24;74.11
8059;BME280;4072;42.668;23.396;2023-10-09T05:56:52;95884.78;;;15.29;72.63
8059;BME280;4072;42.668;23.396;2023-10-09T05:59:38;95884.47;;;15.36;71.76
8059;BME280;4072;42.668;23.396;2023-10-09T06:02:24;95881.44;;;15.34;70.80
8059;BME280;4072;42.668;23.396;2023-10-09T06:05:26;95898.38;;;15.56;69.54
8059;BME280;4072;42.668;23.396;2023-10-09T06:08:08;95895.03;;;15.61;68.48
8059;BME280;4072;42.668;23.396;2023-10-09T06:10:40;95908.97;;;15.63;67.72
8059;BME280;4072;42.668;23.396;2023-10-09T06:13:09;95919.16;;;15.45;66.94
8059;BME280;4072;42.668;23.396;2023-10-09T06:15:55;95907.50;;;15.44;66.61
8059;BME280;4072;42.668;23.396;2023-10-09T06:18:47;95906.56;;;15.65;66.85
8059;BME280;4072;42.668;23.396;2023-10-09T06:21:36;95911.38;;;15.61;65.85
8059;BME280;4072;42.668;23.396;2023-10-09T06:24:27;95912.59;;;15.69;65.51
8059;BME280;4072;42.668;23.396;2023-10-09T06:27:00;95918.91;;;15.84;64.48
8059;BME280;4072;42.668;23.396;2023-10-09T06:29:52;95917.28;;;15.69;64.30
8059;BME280;4072;42.668;23.396;2023-10-09T06:32:40;95917.28;;;15.69;63.56
8059;BME280;4072;42.668;23.396;2023-10-09T06:35:18;95859.34;;;15.23;64.87
8059;BME280;4072;42.668;23.396;2023-10-09T06:37:51;95914.09;;;15.70;64.07
8059;BME280;4072;42.668;23.396;2023-10-09T06:40:38;95918.50;;;15.68;62.36
8059;BME280;4072;42.668;23.396;2023-10-09T06:43:50;95927.03;;;16.02;60.57
8059;BME280;4072;42.668;23.396;2023-10-09T06:46:21;95930.41;;;15.88;57.53
8059;BME280;4072;42.668;23.396;2023-10-09T06:49:08;95924.91;;;16.06;55.81
8059;BME280;4072;42.668;23.396;2023-10-09T06:51:52;95929.63;;;15.97;55.99
8059;BME280;4072;42.668;23.396;2023-10-09T06:54:23;95931.47;;;15.91;57.25
8059;BME280;4072;42.668;23.396;2023-10-09T06:56:53;95926.53;;;15.71;57.10
8059;BME280;4072;42.668;23.396;2023-10-09T06:59:39;95923.78;;;15.80;57.31
8059;BME280;4072;42.668;23.396;2023-10-09T07:02:10;95930.19;;;15.59;57.25
8059;BME280;4072;42.668;23.396;2023-10-09T07:04:55;95928.03;;;15.72;57.33
8059;BME280;4072;42.668;23.396;2023-10-09T07:07:40;95922.50;;;15.99;55.59
8059;BME280;4072;42.668;23.396;2023-10-09T07:10:18;95936.97;;;16.23;55.11
8059;BME280;4072;42.668;23.396;2023-10-09T07:13:06;95932.63;;;16.08;54.62
8059;BME280;4072;42.668;23.396;2023-10-09T07:15:35;95926.56;;;16.04;53.80
8059;BME280;4072;42.668;23.396;2023-10-09T07:18:20;95935.78;;;16.15;53.60
8059;BME280;4072;42.668;23.396;2023-10-09T07:20:53;95926.59;;;16.36;52.56
8059;BME280;4072;42.668;23.396;2023-10-09T07:23:28;95929.19;;;16.63;51.30
8059;BME280;4072;42.668;23.396;2023-10-09T07:26:05;95930.94;;;16.75;50.36
8059;BME280;4072;42.668;23.396;2023-10-09T07:28:48;95941.53;;;16.82;48.72
8059;BME280;4072;42.668;23.396;2023-10-09T07:31:20;95944.13;;;16.77;49.01
8059;BME280;4072;42.668;23.396;2023-10-09T07:33:56;95927.19;;;16.87;48.86
8059;BME280;4072;42.668;23.396;2023-10-09T07:36:34;95927.19;;;16.87;48.67
8059;BME280;4072;42.668;23.396;2023-10-09T07:39:05;95925.59;;;16.57;47.65
8059;BME280;4072;42.668;23.396;2023-10-09T07:41:45;95928.59;;;16.59;47.89
8059;BME280;4072;42.668;23.396;2023-10-09T07:44:28;95930.06;;;16.04;49.63
8059;BME280;4072;42.668;23.396;2023-10-09T07:47:05;95939.16;;;16.34;49.54
8059;BME280;4072;42.668;23.396;2023-10-09T07:49:49;95895.13;;;16.41;47.75
8059;BME280;4072;42.668;23.396;2023-10-09T07:52:21;95929.66;;;16.29;48.23
8059;BME280;4072;42.668;23.396;2023-10-09T07:54:53;95929.53;;;16.80;48.50
8059;BME280;4072;42.668;23.396;2023-10-09T07:57:30;95927.63;;;17.09;46.28
8059;BME280;4072;42.668;23.396;2023-10-09T08:00:06;95925.50;;;17.28;45.16
8059;BME280;4072;42.668;23.396;2023-10-09T08:03:02;95933.31;;;17.59;43.95
8059;BME280;4072;42.668;23.396;2023-10-09T08:05:51;95930.38;;;17.77;43.18
8059;BME280;4072;42.668;23.396;2023-10-09T08:08:34;95941.13;;;17.95;43.21
8059;BME280;4072;42.668;23.396;2023-10-09T08:11:29;95926.53;;;17.83;42.69
8059;BME280;4072;42.668;23.396;2023-10-09T08:14:30;95925.56;;;17.04;44.45
8059;BME280;4072;42.668;23.396;2023-10-09T08:17:10;95928.88;;;17.08;44.05
8059;BME280;4072;42.668;23.396;2023-10-09T08:19:47;95926.41;;;17.48;42.03
8059;BME280;4072;42.668;23.396;2023-10-09T08:22:26;95919.81;;;17.84;40.67
8059;BME280;4072;42.668;23.396;2023-10-09T08:25:17;95920.38;;;17.74;40.08
8059;BME280;4072;42.668;23.396;2023-10-09T08:27:56;95923.75;;;17.98;39.70
8059;BME280;4072;42.668;23.396;2023-10-09T08:30:26;95929.78;;;18.02;38.92
8059;BME280;4072;42.668;23.396;2023-10-09T08:33:08;95910.16;;;18.03;38.54
8059;BME280;4072;42.668;23.396;2023-10-09T08:35:56;95901.59;;;17.96;39.11
8059;BME280;4072;42.668;23.396;2023-10-09T08:38:32;95910.38;;;18.00;38.24
8059;BME280;4072;42.668;23.396;2023-10-09T08:41:07;95888.66;;;17.96;38.48
8059;BME280;4072;42.668;23.396;2023-10-09T08:43:50;95897.09;;;18.13;38.79
8059;BME280;4072;42.668;23.396;2023-10-09T08:46:22;95894.88;;;18.11;38.99
8059;BME280;4072;42.668;23.396;2023-10-09T08:48:54;95887.06;;;18.24;38.69
8059;BME280;4072;42.668;23.396;2023-10-09T08:51:24;95894.34;;;18.42;38.07
8059;BME280;4072;42.668;23.396;2023-10-09T08:53:53;95881.97;;;18.32;37.50
8059;BME280;4072;42.668;23.396;2023-10-09T08:56:22;95875.50;;;18.69;37.77
8059;BME280;4072;42.668;23.396;2023-10-09T08:58:51;95887.31;;;18.75;37.38
8059;BME280;4072;42.668;23.396;2023-10-09T09:01:21;95881.06;;;18.75;37.22
8059;BME280;4072;42.668;23.396;2023-10-09T09:03:53;95882.03;;;18.72;36.49
8059;BME280;4072;42.668;23.396;2023-10-09T09:06:23;95882.50;;;18.90;36.13
8059;BME280;4072;42.668;23.396;2023-10-09T09:08:52;95860.59;;;19.16;35.58
8059;BME280;4072;42.668;23.396;2023-10-09T09:11:26;95881.72;;;19.10;35.27
8059;BME280;4072;42.668;23.396;2023-10-09T09:14:03;95886.13;;;19.02;35.05
8059;BME280;4072;42.668;23.396;2023-10-09T09:16:35;95884.16;;;18.82;35.15
8059;BME280;4072;42.668;23.396;2023-10-09T09:19:05;95886.25;;;18.93;35.31
8059;BME280;4072;42.668;23.396;2023-10-09T09:21:49;95877.91;;;19.02;35.10
8059;BME280;4072;42.668;23.396;2023-10-09T09:24:22;95880.78;;;18.53;35.48
8059;BME280;4072;42.668;23.396;2023-10-09T09:27:01;95873.63;;;18.41;35.76
8059;BME280;4072;42.668;23.396;2023-10-09T09:29:41;95855.94;;;18.07;35.24
8059;BME280;4072;42.668;23.396;2023-10-09T09:32:38;95869.13;;;18.58;34.54
8059;BME280;4072;42.668;23.396;2023-10-09T09:35:27;95872.91;;;18.80;33.78
8059;BME280;4072;42.668;23.396;2023-10-09T09:37:57;95871.41;;;18.25;34.48
8059;BME280;4072;42.668;23.396;2023-10-09T09:40:31;95865.53;;;18.32;34.86
8059;BME280;4072;42.668;23.396;2023-10-09T09:43:02;95864.22;;;18.42;34.42
8059;BME280;4072;42.668;23.396;2023-10-09T09:45:35;95864.91;;;18.77;31.48
8059;BME280;4072;42.668;23.396;2023-10-09T09:48:06;95871.66;;;19.01;32.85
8059;BME280;4072;42.668;23.396;2023-10-09T09:50:37;95855.53;;;19.09;33.10
8059;BME280;4072;42.668;23.396;2023-10-09T09:53:11;95858.88;;;19.18;32.61
8059;BME280;4072;42.668;23.396;2023-10-09T09:55:46;95860.03;;;18.86;32.68
8059;BME280;4072;42.668;23.396;2023-10-09T09:58:24;95856.66;;;18.37;33.11
8059;BME280;4072;42.668;23.396;2023-10-09T10:01:02;95846.81;;;18.45;32.21
8059;BME280;4072;42.668;23.396;2023-10-09T10:03:38;95852.91;;;18.20;32.74
8059;BME280;4072;42.668;23.396;2023-10-09T10:06:11;95837.09;;;17.95;33.84
8059;BME280;4072;42.668;23.396;2023-10-09T10:08:41;95827.28;;;18.23;33.90
8059;BME280;4072;42.668;23.396;2023-10-09T10:11:42;95828.44;;;18.51;33.44
8059;BME280;4072;42.668;23.396;2023-10-09T10:14:15;95801.44;;;18.64;31.75
8059;BME280;4072;42.668;23.396;2023-10-09T10:17:03;95821.47;;;18.50;31.96
8059;BME280;4072;42.668;23.396;2023-10-09T10:20:09;95818.00;;;18.35;32.23
8059;BME280;4072;42.668;23.396;2023-10-09T10:23:17;95802.53;;;18.32;33.05
8059;BME280;4072;42.668;23.396;2023-10-09T10:25:46;95794.66;;;18.39;32.21
8059;BME280;4072;42.668;23.396;2023-10-09T10:28:21;95791.59;;;18.52;31.73
8059;BME280;4072;42.668;23.396;2023-10-09T10:31:10;95756.78;;;18.58;31.45
8059;BME280;4072;42.668;23.396;2023-10-09T10:34:05;95778.75;;;18.83;31.68
8059;BME280;4072;42.668;23.396;2023-10-09T10:36:39;95770.97;;;19.02;30.68
8059;BME280;4072;42.668;23.396;2023-10-09T10:39:11;95755.91;;;18.92;31.63
8059;BME280;4072;42.668;23.396;2023-10-09T10:41:55;95742.00;;;19.01;31.76
8059;BME280;4072;42.668;23.396;2023-10-09T10:44:27;95754.13;;;19.45;31.08
8059;BME280;4072;42.668;23.396;2023-10-09T10:47:10;95717.25;;;19.21;30.46
8059;BME280;4072;42.668;23.396;2023-10-09T10:49:52;95752.59;;;19.39;29.81
8059;BME280;4072;42.668;23.396;2023-10-09T10:52:27;95735.25;;;19.53;30.17
8059;BME280;4072;42.668;23.396;2023-10-09T10:55:11;95743.44;;;19.84;30.30
8059;BME280;4072;42.668;23.396;2023-10-09T10:57:45;95718.50;;;19.93;30.58
8059;BME280;4072;42.668;23.396;2023-10-09T11:00:28;95737.06;;;20.09;29.88
8059;BME280;4072;42.668;23.396;2023-10-09T11:03:18;95725.66;;;20.16;29.59
8059;BME280;4072;42.668;23.396;2023-10-09T11:06:00;95723.41;;;20.20;29.22
8059;BME280;4072;42.668;23.396;2023-10-09T11:08:45;95714.81;;;20.01;29.72
8059;BME280;4072;42.668;23.396;2023-10-09T11:11:22;95723.28;;;20.57;29.24
8059;BME280;4072;42.668;23.396;2023-10-09T11:14:08;95732.34;;;20.79;29.10
8059;BME280;4072;42.668;23.396;2023-10-09T11:16:41;95720.84;;;20.75;29.21
8059;BME280;4072;42.668;23.396;2023-10-09T11:19:10;95713.34;;;20.92;28.71
8059;BME280;4072;42.668;23.396;2023-10-09T11:22:01;95696.34;;;20.88;28.20
8059;BME280;4072;42.668;23.396;2023-10-09T11:24:50;95660.31;;;20.53;28.63
8059;BME280;4072;42.668;23.396;2023-10-09T11:27:41;95686.34;;;20.74;29.08
8059;BME280;4072;42.668;23.396;2023-10-09T11:30:18;95674.84;;;20.76;28.29
8059;BME280;4072;42.668;23.396;2023-10-09T11:33:04;95673.34;;;20.91;28.30
8059;BME280;4072;42.668;23.396;2023-10-09T11:35:34;95675.63;;;20.93;29.23
8059;BME280;4072;42.668;23.396;2023-10-09T11:38:02;95669.63;;;21.05;29.15
8059;BME280;4072;42.668;23.396;2023-10-09T11:40:50;95672.91;;;21.31;28.71
8059;BME280;4072;42.668;23.396;2023-10-09T11:43:46;95670.38;;;21.33;28.97
8059;BME280;4072;42.668;23.396;2023-10-09T11:46:22;95663.84;;;21.47;28.31
8059;BME280;4072;42.668;23.396;2023-10-09T11:49:08;95668.13;;;21.32;28.37
8059;BME280;4072;42.668;23.396;2023-10-09T11:52:11;95657.91;;;21.10;28.64
8059;BME280;4072;42.668;23.396;2023-10-09T11:54:57;95647.91;;;21.02;28.76
8059;BME280;4072;42.668;23.396;2023-10-09T11:57:28;95654.59;;;20.84;29.08
8059;BME280;4072;42.668;23.396;2023-10-09T12:00:01;95640.84;;;20.73;28.73
8059;BME280;4072;42.668;23.396;2023-10-09T12:02:33;95637.59;;;20.64;28.82
8059;BME280;4072;42.668;23.396;2023-10-09T12:05:11;95631.81;;;20.40;29.00
8059;BME280;4072;42.668;23.396;2023-10-09T12:07:44;95619.81;;;20.48;29.07
8059;BME280;4072;42.668;23.396;2023-10-09T12:10:12;95619.06;;;20.59;28.70
8059;BME280;4072;42.668;23.396;2023-10-09T12:12:53;95607.34;;;20.69;28.80
8059;BME280;4072;42.668;23.396;2023-10-09T12:15:24;95615.59;;;21.13;28.48
8059;BME280;4072;42.668;23.396;2023-10-09T12:17:59;95617.84;;;21.26;28.23
8059;BME280;4072;42.668;23.396;2023-10-09T12:20:35;95607.34;;;21.13;28.75
8059;BME280;4072;42.668;23.396;2023-10-09T12:23:04;95598.38;;;20.96;29.06
8059;BME280;4072;42.668;23.396;2023-10-09T12:25:33;95602.34;;;20.84;28.95
8059;BME280;4072;42.668;23.396;2023-10-09T12:28:04;95609.59;;;20.87;28.90
8059;BME280;4072;42.668;23.396;2023-10-09T12:30:40;95597.88;;;21.03;28.29
8059;BME280;4072;42.668;23.396;2023-10-09T12:33:09;95605.81;;;21.34;28.70
8059;BME280;4072;42.668;23.396;2023-10-09T12:35:39;95578.06;;;21.32;28.09
8059;BME280;4072;42.668;23.396;2023-10-09T12:38:08;95589.06;;;21.32;28.28
8059;BME280;4072;42.668;23.396;2023-10-09T12:40:37;95553.56;;;21.18;28.20
8059;BME280;4072;42.668;23.396;2023-10-09T12:43:10;95578.00;;;21.49;27.99
8059;BME280;4072;42.668;23.396;2023-10-09T12:45:42;95569.06;;;21.26;27.87
8059;BME280;4072;42.668;23.396;2023-10-09T12:48:12;95578.78;;;21.38;27.32
8059;BME280;4072;42.668;23.396;2023-10-09T12:50:41;95569.81;;;21.32;27.21
8059;BME280;4072;42.668;23.396;2023-10-09T12:53:12;95529.09;;;21.14;27.54
8059;BME280;4072;42.668;23.396;2023-10-09T12:55:44;95567.81;;;21.27;27.09
8059;BME280;4072;42.668;23.396;2023-10-09T12:58:14;95543.31;;;21.18;27.32
8059;BME280;4072;42.668;23.396;2023-10-09T13:00:43;95555.28;;;21.37;27.25
8059;BME280;4072;42.668;23.396;2023-10-09T13:03:17;95550.03;;;21.39;27.32
8059;BME280;4072;42.668;23.396;2023-10-09T13:05:47;95522.03;;;21.19;27.06
8059;BME280;4072;42.668;23.396;2023-10-09T13:08:23;95540.53;;;21.35;26.76
8059;BME280;4072;42.668;23.396;2023-10-09T13:11:03;95534.75;;;21.38;26.90
8059;BME280;4072;42.668;23.396;2023-10-09T13:13:40;95527.22;;;21.44;26.56
8059;BME280;4072;42.668;23.396;2023-10-09T13:16:11;95530.94;;;21.58;26.84
8059;BME280;4072;42.668;23.396;2023-10-09T13:18:41;95528.81;;;21.86;26.67
8059;BME280;4072;42.668;23.396;2023-10-09T13:21:18;95511.41;;;22.07;25.86
8059;BME280;4072;42.668;23.396;2023-10-09T13:23:47;95522.19;;;22.05;25.85
8059;BME280;4072;42.668;23.396;2023-10-09T13:26:17;95512.47;;;21.99;25.86
8059;BME280;4072;42.668;23.396;2023-10-09T13:29:01;95485.50;;;22.21;25.81
8059;BME280;4072;42.668;23.396;2023-10-09T13:31:31;95515.03;;;22.61;25.52
8059;BME280;4072;42.668;23.396;2023-10-09T13:34:03;95506.16;;;22.74;25.19
8059;BME280;4072;42.668;23.396;2023-10-09T13:36:33;95505.41;;;22.73;25.03
8059;BME280;4072;42.668;23.396;2023-10-09T13:39:05;95465.47;;;22.21;25.31
8059;BME280;4072;42.668;23.396;2023-10-09T13:41:50;95494.84;;;22.77;24.68
8059;BME280;4072;42.668;23.396;2023-10-09T13:44:27;95497.03;;;22.84;24.46
8059;BME280;4072;42.668;23.396;2023-10-09T13:46:56;95489.91;;;22.70;24.50
8059;BME280;4072;42.668;23.396;2023-10-09T13:49:25;95502.28;;;22.58;23.75
8059;BME280;4072;42.668;23.396;2023-10-09T13:51:58;95500.00;;;22.62;23.69
8059;BME280;4072;42.668;23.396;2023-10-09T13:54:29;95479.13;;;22.67;23.67
8059;BME280;4072;42.668;23.396;2023-10-09T13:57:06;95499.50;;;22.58;22.89
8059;BME280;4072;42.668;23.396;2023-10-09T13:59:39;95482.75;;;22.56;23.43
8059;BME280;4072;42.668;23.396;2023-10-09T14:02:16;95451.72;;;22.45;23.41